Aérodrome :
LOGIN :

S'inscrire | Disclaimer

   EN    FR    IT 

 










Légende :    VFR   VFR Marginal   IFR   IFR Intensif   IFR Très Intensif
Visi : 
Plafond : 
>= 8 km
>= 3000ft
5 à 8 km
1000 à 3000 ft
1500m à 5 km
500 à 1000 ft
800 à 1500m
200 à 500 ft
< 800m
< 200 ft
Symboles :   Orages  Brouillard  Fortes neiges  Fortes précipitations  Vent > 20 kt
SIGMETs :   Divers  Orages  Givrage  Turbulence  Onde Orograph.  Cendres Volcan.







- Altitude de l'aérodrome : 3 ft
- Code IATA : LWR


EHLW - Leuuwarden Air Base

DERNIER METAR :
  • 181455Z AUTO 26011KT 220V290 9999 BKN080 OVC100 21/16 Q1010 BLU

METARs EXPIRÉS :
  • 181425Z AUTO 26012KT 210V300 9999 SCT085 OVC100 21/15 Q1009 BLU 25012KT CAVOK RMK R23
  • 181355Z AUTO 25011KT 220V290 9999 OVC092 22/15 Q1009 BLU 25012KT CAVOK RMK R23
  • 181331Z AUTO 25012KT 220V280 9999 FEW094 SCT100 OVC160 22/15 Q1009 BLU 25012KT CAVOK RMK R23
  • 181255Z AUTO 24012KT 200V280 9999 FEW110 OVC180 23/14 Q1009 BLU 23011KT 9999 SCT040 RMK R23
  • 181231Z AUTO 23011KT 180V250 9999 OVC100 23/14 Q1009 BLU 23011KT 9999 SCT040 RMK R23
  • 181225Z AUTO 22011KT 180V250 9999 OVC110 23/14 Q1009 BLU 20012KT 9999 BKN040 RMK R23
  • 181155Z AUTO 22012KT 140V250 9999 FEW048 BKN110 OVC230 23/14 Q1009 BLU 20012KT 9999 BKN040 RMK R23

TAF TAF EHLW
Valide du 18 à 13h jusqu'au 19 à 01h UTC


181252Z 1813/1901 23011KT CAVOK
PROB40
TEMPO 1818/1821 4000 TSRA SHRA SCT040CB
BECMG 1819/1821 18006KT BKN045
TEMPO 1819/1901 3000 BR SCT007 BKN012
Pas de NOTAMs connus pour ce terrain.



MET'MAP, la Météo Aéronautique d'un coup d'oeil ! - Copyright ORBIFLY Décembre 2007 - Disclaimer

ORBIFLY MET'MAP TEAM :

Programmation & Développement : Alexandra Zaïnal
Conception & Développement : Baudouin d'Aumeries
Co-Programmation & Développement : Marc-Olivier Méhu
Soutien technique & logistique : Manuel Goepfert

Contact : metmap@orbifly.com




SOURCES & CREDITS :

   NOAA